Time;durP1;ratioP1;P1;durP2;ratioP2;P2;SDS_P1;SDS_P2;PMS_P1;PMS_P2;Temp;Humidity;BMP_temperature;BMP_pressure;BME280_temperature;BME280_humidity;BME280_pressure;Samples;Min_cycle;Max_cycle;Signal;HPM_P1;HPM_P2
2023/07/31 00:01:09;;;;;;;1.00;0.90;;;20.90;65.10;;;;;;5039482;28;20029;-79
2023/07/31 00:03:35;;;;;;;1.15;1.00;;;20.90;65.20;;;;;;5040071;28;20032;-79
2023/07/31 00:06:01;;;;;;;0.82;0.80;;;20.90;65.20;;;;;;5039590;28;20043;-81
2023/07/31 00:08:27;;;;;;;1.15;0.80;;;20.90;65.20;;;;;;5039358;28;20477;-79
2023/07/31 00:10:53;;;;;;;1.50;1.08;;;20.80;65.20;;;;;;5056000;28;20040;-79
2023/07/31 00:13:18;;;;;;;1.13;0.88;;;20.80;65.30;;;;;;5072532;28;20498;-79
2023/07/31 00:15:44;;;;;;;1.00;0.90;;;20.80;65.30;;;;;;5039211;28;20056;-79
2023/07/31 00:18:10;;;;;;;1.08;0.98;;;20.80;65.30;;;;;;5056620;28;20519;-79
2023/07/31 00:20:35;;;;;;;0.80;0.80;;;20.80;65.40;;;;;;5038046;28;20619;-79
2023/07/31 00:23:01;;;;;;;1.13;0.90;;;20.70;65.40;;;;;;5023102;28;20045;-79
2023/07/31 00:25:27;;;;;;;0.80;0.80;;;20.70;65.50;;;;;;5073899;28;20072;-80
2023/07/31 00:27:52;;;;;;;1.20;0.90;;;20.70;65.50;;;;;;5056450;28;20397;-79
2023/07/31 00:30:18;;;;;;;1.15;1.00;;;20.70;65.50;;;;;;5039327;28;20050;-79
2023/07/31 00:32:44;;;;;;;1.08;0.80;;;20.70;65.60;;;;;;5055901;28;20032;-79
2023/07/31 00:35:10;;;;;;;1.30;0.82;;;20.60;65.50;;;;;;5023251;28;20028;-79
2023/07/31 00:37:35;;;;;;;0.80;0.75;;;20.60;65.60;;;;;;5007259;28;20484;-80
2023/07/31 00:40:03;;;;;;;1.38;1.00;;;20.60;65.60;;;;;;5039594;28;20020;-80
2023/07/31 00:42:29;;;;;;;0.80;0.80;;;20.60;65.70;;;;;;5040035;28;20032;-79
2023/07/31 00:44:55;;;;;;;0.90;0.88;;;20.60;65.70;;;;;;5055704;28;20119;-79
2023/07/31 00:47:21;;;;;;;1.25;1.00;;;20.60;65.70;;;;;;5039228;28;20086;-80
2023/07/31 00:49:47;;;;;;;0.80;0.80;;;20.50;65.80;;;;;;5039020;28;20028;-79
2023/07/31 00:52:13;;;;;;;1.08;1.00;;;20.50;65.80;;;;;;5039131;28;20033;-79
2023/07/31 00:54:39;;;;;;;0.68;0.68;;;20.50;65.80;;;;;;5038969;28;20051;-79
2023/07/31 00:57:07;;;;;;;1.00;0.90;;;20.50;65.90;;;;;;5039282;28;20090;-79
2023/07/31 00:59:33;;;;;;;1.27;1.00;;;20.50;65.90;;;;;;5055312;28;20059;-80
2023/07/31 01:01:59;;;;;;;1.15;0.90;;;20.50;65.90;;;;;;5039016;28;20032;-80
2023/07/31 01:04:25;;;;;;;2.25;1.38;;;20.50;66.00;;;;;;5038853;28;20388;-79
2023/07/31 01:07:04;;;;;;;2.17;1.10;;;20.40;66.00;;;;;;5039047;28;20128;-80
2023/07/31 01:09:52;;;;;;;1.67;1.02;;;20.40;66.00;;;;;;5056375;28;20029;-80
2023/07/31 01:12:20;;;;;;;1.98;1.40;;;20.40;66.10;;;;;;5055362;28;20032;-80
2023/07/31 01:15:12;;;;;;;2.47;1.30;;;20.40;66.00;;;;;;5055621;28;20071;-80
2023/07/31 01:17:39;;;;;;;3.13;1.77;;;20.40;66.10;;;;;;5039245;28;20035;-80
2023/07/31 01:20:12;;;;;;;2.85;1.52;;;20.40;66.10;;;;;;5038852;28;20082;-79
2023/07/31 01:22:56;;;;;;;1.70;1.40;;;20.30;66.10;;;;;;5055734;28;20031;-80
2023/07/31 01:25:52;;;;;;;3.07;1.40;;;20.30;66.10;;;;;;5056071;28;20438;-79
2023/07/31 01:28:23;;;;;;;2.08;1.33;;;20.30;66.20;;;;;;5073363;28;20024;-80
2023/07/31 01:30:49;;;;;;;2.88;1.80;;;20.30;66.20;;;;;;5055227;28;20078;-79
2023/07/31 01:33:16;;;;;;;4.18;1.90;;;20.30;66.20;;;;;;5041724;28;20025;-79
2023/07/31 01:35:44;;;;;;;3.58;2.00;;;20.30;66.30;;;;;;5042938;28;20040;-79
2023/07/31 01:38:10;;;;;;;3.72;1.88;;;20.30;66.30;;;;;;5042910;28;20033;-80
2023/07/31 01:40:36;;;;;;;3.38;2.10;;;20.30;66.30;;;;;;5043178;28;20522;-80
2023/07/31 01:43:02;;;;;;;2.35;1.67;;;20.30;66.30;;;;;;5059191;28;20056;-80
2023/07/31 01:45:28;;;;;;;3.67;2.08;;;20.30;66.30;;;;;;5042330;28;20037;-80
2023/07/31 01:47:54;;;;;;;2.83;1.92;;;20.30;66.30;;;;;;5058681;28;20090;-80
2023/07/31 01:50:19;;;;;;;3.75;2.00;;;20.20;66.30;;;;;;5025881;28;20388;-80
2023/07/31 01:52:45;;;;;;;3.17;1.75;;;20.20;66.30;;;;;;5058862;28;20036;-78
2023/07/31 01:55:11;;;;;;;4.47;2.13;;;20.20;66.30;;;;;;5042232;28;20044;-79
2023/07/31 01:57:37;;;;;;;4.07;2.17;;;20.20;66.40;;;;;;5042223;28;20032;-80
2023/07/31 02:00:05;;;;;;;4.35;2.30;;;20.20;66.40;;;;;;5025843;28;20477;-78
2023/07/31 02:02:37;;;;;;;3.67;2.30;;;20.20;66.40;;;;;;5044093;28;20037;-79
2023/07/31 02:05:03;;;;;;;4.10;2.25;;;20.20;66.40;;;;;;5058855;28;20043;-79
2023/07/31 02:07:29;;;;;;;4.28;2.20;;;20.20;66.40;;;;;;5025696;28;20120;-79
2023/07/31 02:09:55;;;;;;;3.85;1.80;;;20.20;66.50;;;;;;5042221;28;20063;-79
2023/07/31 02:12:20;;;;;;;2.65;1.92;;;20.30;66.50;;;;;;5058523;28;20120;-80
2023/07/31 02:14:46;;;;;;;3.75;2.00;;;20.20;66.50;;;;;;5042687;28;20028;-78
2023/07/31 02:17:12;;;;;;;4.45;2.10;;;20.20;66.50;;;;;;5058362;28;20421;-79
2023/07/31 02:19:38;;;;;;;4.05;2.38;;;20.20;66.50;;;;;;5059146;28;20035;-79
2023/07/31 02:22:04;;;;;;;4.18;2.10;;;20.20;66.60;;;;;;5041426;28;20063;-79
2023/07/31 02:24:31;;;;;;;3.78;2.25;;;20.20;66.60;;;;;;5059104;28;20071;-79
2023/07/31 02:26:57;;;;;;;3.50;2.15;;;20.20;66.60;;;;;;5058359;28;20036;-79
2023/07/31 02:29:23;;;;;;;5.18;2.17;;;20.20;66.60;;;;;;5041881;28;20384;-78
2023/07/31 02:31:49;;;;;;;4.68;2.40;;;20.20;66.60;;;;;;5041819;28;20040;-78
2023/07/31 02:34:18;;;;;;;4.20;2.40;;;20.20;66.70;;;;;;5025406;28;20029;-80
2023/07/31 02:36:43;;;;;;;3.33;1.92;;;20.20;66.70;;;;;;5025657;28;20070;-79
2023/07/31 02:39:09;;;;;;;3.42;2.15;;;20.20;66.70;;;;;;5025119;28;20422;-80
2023/07/31 02:41:35;;;;;;;4.25;2.10;;;20.20;66.70;;;;;;5057916;28;20039;-80
2023/07/31 02:44:01;;;;;;;4.45;2.33;;;20.20;66.80;;;;;;5040680;28;20430;-80
2023/07/31 02:46:27;;;;;;;4.18;2.30;;;20.20;66.80;;;;;;5075450;28;20072;-79
2023/07/31 02:48:52;;;;;;;3.58;1.98;;;20.10;66.70;;;;;;5041560;28;20051;-80
2023/07/31 02:51:18;;;;;;;4.15;2.30;;;20.20;66.80;;;;;;5057813;28;20036;-80
2023/07/31 02:53:44;;;;;;;4.78;2.70;;;20.10;66.80;;;;;;5075941;28;20043;-80
2023/07/31 02:56:10;;;;;;;4.20;2.13;;;20.10;66.80;;;;;;5057626;28;20123;-80
2023/07/31 02:58:35;;;;;;;3.92;2.00;;;20.10;66.80;;;;;;5041895;28;20127;-80
2023/07/31 03:01:01;;;;;;;3.50;2.20;;;20.10;66.80;;;;;;5058655;28;20040;-80
2023/07/31 03:03:27;;;;;;;3.90;2.25;;;20.10;66.80;;;;;;5024727;28;20029;-80
2023/07/31 03:05:53;;;;;;;4.13;2.10;;;20.10;66.80;;;;;;5075188;28;20127;-81
2023/07/31 03:08:19;;;;;;;3.85;2.42;;;20.10;66.80;;;;;;5040932;28;20059;-80
2023/07/31 03:10:44;;;;;;;3.58;2.25;;;20.10;66.80;;;;;;5057460;28;20034;-80
2023/07/31 03:13:10;;;;;;;3.63;2.22;;;20.10;66.80;;;;;;5040873;28;20112;-80
2023/07/31 03:15:36;;;;;;;4.22;2.30;;;20.10;66.80;;;;;;5040675;28;20040;-80
2023/07/31 03:18:01;;;;;;;3.97;2.50;;;20.10;66.80;;;;;;5058037;28;20107;-80
2023/07/31 03:20:27;;;;;;;3.72;2.15;;;20.10;66.90;;;;;;5040181;28;20056;-81
2023/07/31 03:22:53;;;;;;;4.38;2.17;;;20.10;66.90;;;;;;5058007;28;20036;-80
2023/07/31 03:25:18;;;;;;;4.15;2.00;;;20.10;66.90;;;;;;5040397;28;20044;-80
2023/07/31 03:27:44;;;;;;;4.47;2.78;;;20.10;66.90;;;;;;5057012;28;20032;-80
2023/07/31 03:30:10;;;;;;;3.25;2.00;;;20.10;67.50;;;;;;5041337;28;20096;-81
2023/07/31 03:32:36;;;;;;;4.55;2.40;;;20.10;66.80;;;;;;5040646;28;20029;-80
2023/07/31 03:35:02;;;;;;;4.03;2.20;;;20.00;66.80;;;;;;5041191;28;20035;-81
2023/07/31 03:37:29;;;;;;;4.60;2.42;;;20.00;66.80;;;;;;5056954;28;20055;-81
2023/07/31 03:39:54;;;;;;;4.60;2.47;;;20.00;66.90;;;;;;5040660;28;20523;-80
2023/07/31 03:42:20;;;;;;;4.57;2.58;;;20.10;66.90;;;;;;5024071;28;20021;-81
2023/07/31 03:44:46;;;;;;;4.10;2.30;;;20.10;66.90;;;;;;5040047;28;20043;-80
2023/07/31 03:47:12;;;;;;;4.50;2.30;;;20.00;66.80;;;;;;5057053;28;20489;-81
2023/07/31 03:49:38;;;;;;;4.03;2.13;;;20.00;66.80;;;;;;5040070;28;20033;-81
2023/07/31 03:52:04;;;;;;;4.10;2.45;;;20.10;67.00;;;;;;5023865;28;20127;-80
2023/07/31 03:54:29;;;;;;;4.03;2.40;;;20.00;66.90;;;;;;5040685;28;20540;-81
2023/07/31 03:56:55;;;;;;;3.80;2.25;;;20.00;67.00;;;;;;5057116;28;20037;-81
2023/07/31 03:59:21;;;;;;;3.60;2.20;;;20.00;66.90;;;;;;5039924;28;20481;-81
2023/07/31 04:01:47;;;;;;;4.55;2.33;;;20.00;67.00;;;;;;5040625;28;20373;-81
2023/07/31 04:04:12;;;;;;;4.00;2.35;;;20.00;66.90;;;;;;5023368;28;20032;-81
2023/07/31 04:06:38;;;;;;;4.53;2.20;;;20.00;66.90;;;;;;5039791;28;20044;-81
2023/07/31 04:09:04;;;;;;;4.35;2.13;;;20.00;67.00;;;;;;5072822;28;20033;-82
2023/07/31 04:11:30;;;;;;;5.47;2.30;;;19.90;66.90;;;;;;5039942;28;20124;-80
2023/07/31 04:13:56;;;;;;;4.70;2.50;;;19.90;66.90;;;;;;5040364;28;20032;-81
2023/07/31 04:16:21;;;;;;;4.20;2.10;;;19.90;66.90;;;;;;5039269;28;20040;-81
2023/07/31 04:18:47;;;;;;;3.78;2.40;;;19.90;67.00;;;;;;5072823;28;20086;-81
2023/07/31 04:21:13;;;;;;;3.05;2.05;;;19.90;67.00;;;;;;5056062;28;20527;-81
2023/07/31 04:23:38;;;;;;;3.47;2.17;;;19.90;67.00;;;;;;5039533;28;20033;-81
2023/07/31 04:26:04;;;;;;;3.95;2.35;;;19.90;67.00;;;;;;5056160;28;20098;-81
2023/07/31 04:28:31;;;;;;;4.75;2.60;;;19.90;67.00;;;;;;5040056;28;20036;-81
2023/07/31 04:30:57;;;;;;;4.65;2.40;;;19.90;67.00;;;;;;5039895;28;20036;-81
2023/07/31 04:33:23;;;;;;;4.07;2.15;;;19.90;67.00;;;;;;5074201;28;20044;-80
2023/07/31 04:35:53;;;;;;;4.53;2.60;;;19.90;67.00;;;;;;5055708;28;20033;-81
2023/07/31 04:38:20;;;;;;;5.70;2.30;;;19.90;67.00;;;;;;5073856;28;20112;-82
2023/07/31 04:40:46;;;;;;;2.88;1.98;;;19.90;67.00;;;;;;5055792;28;20028;-81
2023/07/31 04:43:11;;;;;;;4.35;2.33;;;19.90;67.00;;;;;;5055623;28;20028;-81
2023/07/31 04:45:37;;;;;;;5.03;2.42;;;19.90;67.00;;;;;;5073687;28;20127;-84
2023/07/31 04:48:03;;;;;;;4.60;2.70;;;19.90;67.00;;;;;;5056206;28;20381;-82
2023/07/31 04:50:30;;;;;;;4.15;2.50;;;19.90;67.00;;;;;;5023015;28;20487;-88
2023/07/31 04:52:56;;;;;;;4.40;2.30;;;19.90;67.00;;;;;;5039528;28;20036;-81
2023/07/31 04:55:22;;;;;;;4.22;2.35;;;19.90;67.00;;;;;;5039458;28;20033;-82
2023/07/31 04:57:47;;;;;;;4.10;2.25;;;19.90;67.00;;;;;;5039101;28;20029;-82
2023/07/31 05:00:13;;;;;;;4.07;2.17;;;19.90;67.00;;;;;;5006519;28;20040;-80
2023/07/31 05:02:39;;;;;;;4.22;2.60;;;19.80;67.00;;;;;;5038898;28;20082;-80
2023/07/31 05:05:05;;;;;;;5.05;2.70;;;19.80;67.00;;;;;;5039270;28;20048;-79
2023/07/31 05:07:30;;;;;;;3.72;2.17;;;19.90;67.00;;;;;;5022154;28;20115;-78
2023/07/31 05:09:56;;;;;;;4.78;2.47;;;19.80;67.00;;;;;;5056293;28;20028;-82
2023/07/31 05:12:22;;;;;;;3.67;2.15;;;19.80;67.00;;;;;;5039232;28;20036;-80
2023/07/31 05:14:48;;;;;;;3.83;2.40;;;19.80;67.10;;;;;;5038719;28;20036;-83
2023/07/31 05:17:13;;;;;;;4.38;2.17;;;19.80;67.00;;;;;;5055452;28;20059;-84
2023/07/31 05:19:40;;;;;;;4.45;2.53;;;19.80;67.00;;;;;;5055447;28;20039;-82
2023/07/31 05:22:06;;;;;;;3.35;2.35;;;19.80;67.00;;;;;;5038358;28;20055;-81
2023/07/31 05:24:31;;;;;;;4.57;2.33;;;19.80;67.00;;;;;;5055829;28;20032;-83
2023/07/31 05:26:57;;;;;;;6.32;2.47;;;19.80;67.10;;;;;;5006883;28;20067;-81
2023/07/31 05:29:23;;;;;;;3.90;2.08;;;19.80;67.10;;;;;;5022092;28;20108;-82
2023/07/31 05:31:49;;;;;;;3.85;2.00;;;19.80;67.10;;;;;;5072088;28;20036;-81
2023/07/31 05:34:14;;;;;;;3.55;2.25;;;19.80;67.10;;;;;;5038862;28;20082;-85
2023/07/31 05:36:40;;;;;;;4.25;2.22;;;19.80;67.10;;;;;;5039108;28;20070;-85
2023/07/31 05:39:08;;;;;;;3.38;1.95;;;19.80;67.10;;;;;;5022436;28;20035;-82
2023/07/31 05:41:35;;;;;;;3.90;2.35;;;19.80;67.10;;;;;;5038782;28;20139;-81
2023/07/31 05:44:01;;;;;;;3.78;2.05;;;19.80;67.10;;;;;;5039100;28;20055;-82
2023/07/31 05:46:26;;;;;;;3.78;2.13;;;19.80;67.10;;;;;;5038628;28;20477;-81
2023/07/31 05:48:52;;;;;;;3.33;2.08;;;19.80;67.10;;;;;;5038706;28;20124;-81
2023/07/31 05:51:18;;;;;;;4.78;2.13;;;19.80;67.10;;;;;;5055430;28;20035;-81
2023/07/31 05:53:43;;;;;;;3.33;2.05;;;19.80;67.10;;;;;;5055310;28;20471;-80
2023/07/31 05:56:09;;;;;;;3.72;2.17;;;19.80;67.10;;;;;;5038249;28;20093;-81
2023/07/31 05:58:35;;;;;;;4.43;2.50;;;19.80;67.10;;;;;;5038499;28;20029;-80
2023/07/31 06:01:01;;;;;;;3.70;2.17;;;19.80;67.10;;;;;;5022473;28;20040;-81
2023/07/31 06:03:27;;;;;;;3.28;2.22;;;19.80;67.10;;;;;;5055022;28;20025;-81
2023/07/31 06:05:52;;;;;;;3.50;2.33;;;19.80;67.10;;;;;;5038298;28;20041;-81
2023/07/31 06:08:18;;;;;;;4.03;2.40;;;19.80;67.10;;;;;;5054769;28;20031;-81
2023/07/31 06:10:44;;;;;;;5.03;2.50;;;19.80;67.10;;;;;;5038460;28;20032;-80
2023/07/31 06:13:09;;;;;;;2.70;1.70;;;19.80;67.20;;;;;;5038428;28;20034;-80
2023/07/31 06:15:35;;;;;;;3.80;2.25;;;19.80;67.20;;;;;;5039036;28;20373;-81
2023/07/31 06:18:03;;;;;;;3.22;2.08;;;19.80;67.30;;;;;;5039330;28;20476;-80
2023/07/31 06:20:28;;;;;;;3.55;2.00;;;19.80;67.30;;;;;;5039294;28;20045;-80
2023/07/31 06:22:54;;;;;;;2.95;2.20;;;19.80;67.30;;;;;;5056808;28;20102;-80
2023/07/31 06:25:20;;;;;;;3.00;1.77;;;19.80;67.20;;;;;;5038510;28;20036;-80
2023/07/31 06:27:46;;;;;;;3.45;2.03;;;19.80;67.30;;;;;;5056836;28;20032;-81
2023/07/31 06:30:12;;;;;;;2.58;1.70;;;19.80;67.20;;;;;;5038835;28;20041;-81
2023/07/31 06:32:37;;;;;;;3.97;2.10;;;19.80;67.20;;;;;;5055109;28;20036;-81
2023/07/31 06:35:04;;;;;;;3.38;2.00;;;19.80;67.30;;;;;;5038579;28;20099;-80
2023/07/31 06:37:29;;;;;;;3.72;2.10;;;19.80;67.30;;;;;;5038254;28;20033;-81
2023/07/31 06:39:55;;;;;;;3.78;1.98;;;19.80;67.30;;;;;;5038321;28;20031;-81
2023/07/31 06:42:21;;;;;;;3.17;1.92;;;19.80;67.40;;;;;;5054673;28;20049;-81
2023/07/31 06:44:46;;;;;;;3.33;2.08;;;19.80;68.00;;;;;;5038213;28;20033;-81
2023/07/31 06:47:15;;;;;;;3.30;2.00;;;19.80;67.40;;;;;;5022163;28;20112;-81
2023/07/31 06:49:40;;;;;;;2.70;1.80;;;19.80;67.40;;;;;;5054496;28;20063;-81
2023/07/31 06:52:06;;;;;;;2.90;1.90;;;19.80;67.40;;;;;;5038128;28;20083;-81
2023/07/31 06:54:32;;;;;;;3.47;2.30;;;19.80;67.40;;;;;;5037982;28;20507;-81
2023/07/31 06:56:58;;;;;;;2.55;1.75;;;19.80;67.50;;;;;;5021447;28;20029;-81
2023/07/31 06:59:23;;;;;;;3.05;2.00;;;19.80;67.50;;;;;;5037855;28;20473;-81
2023/07/31 07:01:49;;;;;;;3.33;2.00;;;19.80;67.50;;;;;;5038894;28;20040;-79
2023/07/31 07:04:15;;;;;;;3.08;1.80;;;19.80;67.50;;;;;;5038582;28;20445;-79
2023/07/31 07:06:40;;;;;;;2.58;1.70;;;19.80;67.50;;;;;;5037908;28;20045;-82
2023/07/31 07:09:06;;;;;;;2.97;2.00;;;19.80;67.50;;;;;;5037709;28;20033;-81
2023/07/31 07:11:32;;;;;;;2.50;1.65;;;19.80;67.50;;;;;;5038462;28;20040;-78
2023/07/31 07:13:57;;;;;;;3.10;2.03;;;19.80;67.50;;;;;;5021128;28;20489;-82
2023/07/31 07:16:23;;;;;;;3.47;1.80;;;19.80;67.50;;;;;;5037799;28;20040;-81
2023/07/31 07:18:49;;;;;;;1.98;1.67;;;19.80;67.50;;;;;;5037881;28;20090;-80
2023/07/31 07:21:15;;;;;;;3.05;1.90;;;19.80;67.50;;;;;;5037381;28;20045;-81
2023/07/31 07:23:42;;;;;;;2.42;1.65;;;19.80;67.50;;;;;;5054148;28;20033;-82
2023/07/31 07:26:08;;;;;;;2.95;1.70;;;19.80;67.60;;;;;;5037450;28;20033;-79
2023/07/31 07:28:33;;;;;;;2.55;1.52;;;19.80;67.60;;;;;;5038060;28;20158;-79
2023/07/31 07:30:59;;;;;;;3.13;1.65;;;19.80;67.60;;;;;;5020506;28;20029;-79
2023/07/31 07:33:25;;;;;;;2.78;1.80;;;19.90;67.70;;;;;;5053768;28;20033;-78
2023/07/31 07:35:51;;;;;;;2.55;1.60;;;19.90;67.70;;;;;;5053673;28;20029;-79
2023/07/31 07:38:16;;;;;;;2.00;1.52;;;19.90;67.70;;;;;;5037383;28;20127;-79
2023/07/31 07:40:42;;;;;;;2.10;1.40;;;19.90;67.70;;;;;;5020971;28;20063;-78
2023/07/31 07:43:08;;;;;;;1.83;1.38;;;19.80;67.70;;;;;;5053954;28;20112;-79
2023/07/31 07:45:34;;;;;;;1.70;1.40;;;19.90;67.70;;;;;;5004078;28;20082;-78
2023/07/31 07:47:59;;;;;;;2.00;1.30;;;19.90;67.70;;;;;;5037198;28;20033;-80
2023/07/31 07:50:25;;;;;;;1.92;1.40;;;19.90;67.80;;;;;;5036919;28;20071;-80
2023/07/31 07:52:51;;;;;;;1.77;1.38;;;19.90;67.70;;;;;;5053606;28;20025;-80
2023/07/31 07:55:17;;;;;;;1.77;1.30;;;19.90;67.70;;;;;;5020256;28;20516;-80
2023/07/31 07:57:44;;;;;;;2.33;1.40;;;19.90;67.70;;;;;;5036712;28;20540;-80
2023/07/31 08:00:10;;;;;;;1.50;1.10;;;19.90;67.80;;;;;;5036691;28;20037;-79
2023/07/31 08:02:42;;;;;;;1.58;1.20;;;20.00;67.80;;;;;;5038348;28;20025;-79
2023/07/31 08:05:08;;;;;;;1.92;1.40;;;19.90;67.70;;;;;;5053481;28;20104;-82
2023/07/31 08:07:34;;;;;;;1.20;1.10;;;20.00;67.80;;;;;;5053262;28;20040;-82
2023/07/31 08:10:00;;;;;;;2.08;1.30;;;20.00;67.80;;;;;;5036734;28;20029;-80
2023/07/31 08:12:25;;;;;;;1.40;1.17;;;19.90;67.80;;;;;;5052807;28;20028;-80
2023/07/31 08:14:51;;;;;;;1.50;1.10;;;20.00;67.80;;;;;;5053241;28;20402;-80
2023/07/31 08:17:17;;;;;;;1.35;1.23;;;20.00;67.80;;;;;;5036445;28;20128;-80
2023/07/31 08:19:44;;;;;;;1.60;1.23;;;20.00;67.80;;;;;;5053210;28;20119;-80
2023/07/31 08:22:09;;;;;;;1.30;1.20;;;20.00;67.80;;;;;;5069325;28;20045;-80
2023/07/31 08:24:35;;;;;;;1.30;1.02;;;20.00;67.80;;;;;;5036923;28;20029;-80
2023/07/31 08:27:01;;;;;;;1.25;1.15;;;20.00;67.80;;;;;;5036257;28;20032;-80
2023/07/31 08:29:27;;;;;;;1.00;0.90;;;20.00;67.90;;;;;;5052667;28;20033;-79
2023/07/31 08:31:52;;;;;;;1.08;1.00;;;20.00;67.80;;;;;;5036052;28;20527;-80
2023/07/31 08:34:18;;;;;;;1.48;1.00;;;20.00;67.80;;;;;;5036318;28;20442;-80
2023/07/31 08:36:44;;;;;;;1.23;1.05;;;20.00;67.80;;;;;;5052732;28;20107;-80
2023/07/31 08:39:10;;;;;;;1.10;1.00;;;20.00;67.80;;;;;;5036249;28;20086;-80
2023/07/31 08:41:39;;;;;;;1.48;1.10;;;20.00;67.90;;;;;;5052418;28;20112;-80
2023/07/31 08:44:05;;;;;;;1.50;1.10;;;20.10;68.00;;;;;;5053760;28;20025;-80
2023/07/31 08:46:32;;;;;;;1.30;1.10;;;20.10;67.90;;;;;;5035937;28;20060;-80
2023/07/31 08:49:00;;;;;;;1.02;0.93;;;20.10;68.00;;;;;;5054028;28;20029;-80
2023/07/31 08:51:26;;;;;;;1.00;1.00;;;20.10;67.90;;;;;;5052720;28;20025;-80
2023/07/31 08:53:53;;;;;;;1.08;0.95;;;20.10;68.00;;;;;;5052114;28;20060;-79
2023/07/31 08:56:19;;;;;;;1.20;1.10;;;20.10;68.00;;;;;;5036618;28;20432;-80
2023/07/31 08:58:47;;;;;;;1.13;1.02;;;20.10;68.00;;;;;;5018689;28;20103;-80
2023/07/31 09:01:14;;;;;;;1.17;1.08;;;20.10;68.00;;;;;;5035992;28;20037;-80
2023/07/31 09:03:41;;;;;;;1.40;1.20;;;20.10;68.00;;;;;;5052170;28;20060;-80
2023/07/31 09:06:08;;;;;;;0.90;0.90;;;20.10;67.90;;;;;;5052322;28;20041;-81
2023/07/31 09:08:34;;;;;;;1.17;1.08;;;20.20;68.00;;;;;;5035570;28;20037;-80
2023/07/31 09:11:03;;;;;;;1.52;1.17;;;20.20;68.00;;;;;;5052959;28;20032;-80
2023/07/31 09:13:30;;;;;;;1.00;0.93;;;20.10;67.90;;;;;;5053057;28;20450;-80
2023/07/31 09:15:55;;;;;;;1.17;1.08;;;20.20;68.00;;;;;;5035691;28;20458;-80
2023/07/31 09:18:22;;;;;;;0.88;0.88;;;20.20;67.90;;;;;;5035592;28;20059;-80
2023/07/31 09:21:04;;;;;;;1.10;1.00;;;20.20;67.90;;;;;;5052251;28;20102;-80
2023/07/31 09:23:44;;;;;;;1.13;1.00;;;20.20;68.00;;;;;;5035717;28;20499;-81
2023/07/31 09:26:10;;;;;;;1.02;1.00;;;20.20;68.00;;;;;;5052265;28;20362;-80
2023/07/31 09:28:36;;;;;;;1.65;0.90;;;20.20;67.80;;;;;;5052347;28;20032;-81
2023/07/31 09:31:02;;;;;;;1.30;1.20;;;20.20;67.80;;;;;;5052852;28;20032;-80
2023/07/31 09:33:28;;;;;;;1.70;1.30;;;20.20;67.90;;;;;;5035659;28;20039;-80
2023/07/31 09:35:53;;;;;;;1.15;1.00;;;20.30;67.90;;;;;;5035544;28;20131;-81
2023/07/31 09:38:19;;;;;;;1.48;1.25;;;20.20;67.90;;;;;;5035291;28;20530;-80
2023/07/31 09:40:49;;;;;;;1.23;1.05;;;20.30;67.90;;;;;;5035421;28;20029;-81
2023/07/31 09:43:19;;;;;;;1.05;1.00;;;20.30;68.00;;;;;;5068353;28;20099;-81
2023/07/31 09:45:46;;;;;;;1.05;0.95;;;20.30;68.00;;;;;;5052782;28;20040;-81
2023/07/31 09:48:17;;;;;;;1.13;1.02;;;20.30;67.90;;;;;;5051985;28;20249;-80
2023/07/31 09:50:45;;;;;;;1.17;1.05;;;20.30;68.00;;;;;;5035137;28;20076;-80
2023/07/31 09:53:11;;;;;;;1.20;1.10;;;20.30;68.00;;;;;;5052703;28;20029;-80
2023/07/31 09:55:38;;;;;;;1.10;1.00;;;20.30;68.00;;;;;;5039433;28;20033;-79
2023/07/31 09:58:07;;;;;;;1.17;1.00;;;20.40;68.00;;;;;;5006629;28;20037;-79
2023/07/31 10:00:33;;;;;;;1.13;1.02;;;20.40;68.00;;;;;;5055535;28;20029;-79
2023/07/31 10:03:01;;;;;;;1.40;1.30;;;20.40;68.00;;;;;;5038957;28;20033;-79
2023/07/31 10:05:36;;;;;;;1.50;1.38;;;20.40;68.10;;;;;;5039035;28;20033;-79
2023/07/31 10:08:03;;;;;;;1.75;1.38;;;20.40;68.10;;;;;;5056253;28;20033;-79
2023/07/31 10:10:29;;;;;;;2.15;1.40;;;20.40;68.00;;;;;;5055765;28;20033;-79
2023/07/31 10:12:57;;;;;;;1.20;1.00;;;20.40;68.00;;;;;;5055312;28;20029;-79
2023/07/31 10:15:24;;;;;;;1.17;1.05;;;20.40;68.00;;;;;;5038311;28;20029;-79
2023/07/31 10:17:51;;;;;;;1.88;1.40;;;20.50;68.10;;;;;;5038931;28;20040;-79
2023/07/31 10:20:17;;;;;;;1.83;1.20;;;20.50;68.10;;;;;;5038267;28;20021;-80
2023/07/31 10:22:45;;;;;;;1.23;1.02;;;20.50;68.10;;;;;;5054782;28;20405;-80
2023/07/31 10:25:12;;;;;;;1.30;1.20;;;20.50;68.10;;;;;;5039126;28;20041;-79
2023/07/31 10:27:39;;;;;;;1.25;1.10;;;20.50;68.10;;;;;;5055437;28;20033;-79
2023/07/31 10:30:09;;;;;;;1.40;1.23;;;20.50;68.00;;;;;;5038576;28;20059;-80
2023/07/31 10:32:37;;;;;;;1.38;1.27;;;20.50;68.00;;;;;;5056040;28;20029;-79
2023/07/31 10:35:06;;;;;;;1.33;1.23;;;20.60;68.00;;;;;;5055337;28;20083;-80
2023/07/31 10:37:39;;;;;;;1.45;1.20;;;20.60;68.00;;;;;;5054832;28;20033;-79
2023/07/31 10:40:26;;;;;;;1.50;1.40;;;20.60;68.10;;;;;;5055850;28;20036;-79
2023/07/31 10:42:57;;;;;;;1.20;1.10;;;20.60;68.10;;;;;;5054608;28;20473;-80
2023/07/31 10:45:38;;;;;;;1.35;1.25;;;20.60;68.00;;;;;;5054839;28;20077;-80
2023/07/31 10:48:13;;;;;;;1.42;1.33;;;20.60;68.00;;;;;;5055197;28;20035;-80
2023/07/31 10:50:49;;;;;;;2.55;1.50;;;20.60;68.00;;;;;;5054700;28;20033;-80
2023/07/31 10:53:26;;;;;;;1.40;1.27;;;20.70;68.00;;;;;;5054560;28;20175;-80
2023/07/31 10:55:52;;;;;;;1.40;1.30;;;20.70;68.00;;;;;;5054510;28;20044;-80
2023/07/31 10:58:22;;;;;;;1.45;1.30;;;20.70;67.90;;;;;;5071222;28;20032;-77
2023/07/31 11:00:48;;;;;;;1.40;1.30;;;20.70;68.00;;;;;;5038349;28;20056;-79
2023/07/31 11:03:16;;;;;;;1.73;1.63;;;20.70;67.90;;;;;;5037496;28;20033;-79
2023/07/31 11:06:03;;;;;;;2.08;1.45;;;20.70;67.90;;;;;;5053301;28;20037;-82
2023/07/31 11:08:35;;;;;;;1.98;1.73;;;20.70;67.90;;;;;;5055074;28;20111;-80
2023/07/31 11:11:03;;;;;;;2.25;1.70;;;20.80;67.90;;;;;;5054554;28;20036;-81
2023/07/31 11:13:42;;;;;;;2.08;1.50;;;20.80;67.90;;;;;;5037558;28;20033;-80
2023/07/31 11:16:09;;;;;;;2.00;1.70;;;20.80;67.90;;;;;;5054479;28;20033;-79
2023/07/31 11:18:38;;;;;;;1.88;1.52;;;20.80;67.90;;;;;;5037672;28;20116;-80
2023/07/31 11:21:03;;;;;;;1.88;1.50;;;20.80;67.80;;;;;;5054444;28;20084;-79
2023/07/31 11:23:30;;;;;;;2.03;1.70;;;20.90;67.80;;;;;;5037801;28;20060;-79
2023/07/31 11:25:59;;;;;;;1.90;1.48;;;20.90;67.90;;;;;;5055422;28;20044;-79
2023/07/31 11:28:25;;;;;;;1.35;1.25;;;20.90;67.90;;;;;;5038056;28;20031;-77
2023/07/31 11:30:51;;;;;;;1.80;1.48;;;20.90;67.80;;;;;;5053904;28;20029;-78
2023/07/31 11:33:17;;;;;;;1.75;1.50;;;20.90;67.80;;;;;;5055081;28;20060;-78
2023/07/31 11:35:44;;;;;;;1.95;1.60;;;21.00;67.80;;;;;;5037175;28;20052;-78
2023/07/31 11:38:22;;;;;;;2.15;1.63;;;21.00;67.80;;;;;;5054675;28;20025;-79
2023/07/31 11:40:48;;;;;;;1.75;1.40;;;21.00;67.80;;;;;;5054892;28;20063;-78
2023/07/31 11:43:17;;;;;;;1.98;1.77;;;21.00;67.70;;;;;;5020654;28;20060;-78
2023/07/31 11:45:47;;;;;;;1.63;1.40;;;21.00;67.70;;;;;;5005860;28;20051;-77
2023/07/31 11:48:23;;;;;;;2.20;1.90;;;21.00;67.70;;;;;;5053551;28;20033;-78
2023/07/31 11:50:54;;;;;;;1.75;1.50;;;21.10;67.80;;;;;;5053809;28;20029;-78
2023/07/31 11:53:32;;;;;;;2.10;1.63;;;21.10;67.70;;;;;;5054159;28;20537;-78
2023/07/31 11:56:04;;;;;;;2.45;1.73;;;21.10;67.80;;;;;;5054217;28;20029;-79
2023/07/31 11:58:31;;;;;;;2.72;1.80;;;21.10;67.70;;;;;;5052960;28;20033;-78
2023/07/31 12:00:58;;;;;;;1.50;1.30;;;21.20;67.80;;;;;;5053401;28;20025;-78
2023/07/31 12:03:24;;;;;;;1.67;1.40;;;21.20;67.70;;;;;;5052731;28;20111;-78
2023/07/31 12:05:50;;;;;;;1.48;1.38;;;21.20;67.70;;;;;;5053146;28;20037;-78
2023/07/31 12:08:16;;;;;;;2.13;1.50;;;21.20;67.70;;;;;;5037225;28;20494;-78
2023/07/31 12:10:42;;;;;;;2.78;1.65;;;21.20;67.60;;;;;;5003979;28;20068;-79
2023/07/31 12:13:19;;;;;;;2.00;1.60;;;21.20;67.60;;;;;;5036325;28;20055;-78
2023/07/31 12:15:46;;;;;;;2.65;1.70;;;21.20;67.60;;;;;;5053161;28;20025;-78
2023/07/31 12:18:21;;;;;;;2.38;1.70;;;21.20;67.60;;;;;;5054515;28;20025;-79
2023/07/31 12:20:53;;;;;;;1.58;1.48;;;21.30;67.70;;;;;;5052970;28;20040;-79
2023/07/31 12:23:27;;;;;;;1.85;1.50;;;21.30;67.70;;;;;;5054465;28;20059;-78
2023/07/31 12:26:06;;;;;;;;;;;21.30;67.70;;;;;;5053206;28;20046;-78
2023/07/31 12:28:41;;;;;;;1.40;1.30;;;21.30;67.40;;;;;;5052618;28;19909;-78
2023/07/31 12:31:10;;;;;;;1.70;1.40;;;21.30;67.40;;;;;;5052779;28;20082;-77
2023/07/31 12:33:38;;;;;;;1.40;1.30;;;21.30;67.40;;;;;;5052869;28;20028;-78
2023/07/31 12:36:35;;;;;;;2.45;1.58;;;21.40;67.50;;;;;;5036036;28;20479;-78
2023/07/31 12:39:01;;;;;;;1.52;1.40;;;21.40;67.70;;;;;;5051502;28;20037;-78
2023/07/31 12:41:26;;;;;;;2.58;1.70;;;21.40;67.50;;;;;;5036038;28;20029;-77
2023/07/31 12:43:52;;;;;;;1.52;1.27;;;21.40;67.50;;;;;;5035969;28;20040;-77
2023/07/31 12:46:18;;;;;;;2.47;1.60;;;21.40;67.50;;;;;;5052662;28;20045;-77
2023/07/31 12:48:44;;;;;;;2.17;1.42;;;21.40;67.50;;;;;;5003522;28;20037;-78